sensor_id;sensor_type;location;lat;lon;timestamp;pressure;altitude;pressure_sealevel;temperature;humidity
61573;BME280;47465;43.094;12.434;2024-01-10T00:00:39;99307.56;;;3.59;100.00
61573;BME280;47465;43.094;12.434;2024-01-10T00:03:04;99216.84;;;3.14;100.00
61573;BME280;47465;43.094;12.434;2024-01-10T00:05:30;99263.53;;;3.38;100.00
61573;BME280;47465;43.094;12.434;2024-01-10T00:07:56;99221.31;;;3.21;100.00
61573;BME280;47465;43.094;12.434;2024-01-10T00:10:23;99278.50;;;3.46;100.00
61573;BME280;47465;43.094;12.434;2024-01-10T00:12:49;99221.09;;;3.01;100.00
61573;BME280;47465;43.094;12.434;2024-01-10T00:15:15;99250.28;;;3.27;100.00
61573;BME280;47465;43.094;12.434;2024-01-10T00:17:41;99275.88;;;3.43;100.00
61573;BME280;47465;43.094;12.434;2024-01-10T00:20:10;99329.72;;;3.84;100.00
61573;BME280;47465;43.094;12.434;2024-01-10T00:22:36;99206.34;;;3.14;100.00
61573;BME280;47465;43.094;12.434;2024-01-10T00:25:02;99209.06;;;3.23;100.00
61573;BME280;47465;43.094;12.434;2024-01-10T00:27:29;99304.22;;;3.77;100.00
61573;BME280;47465;43.094;12.434;2024-01-10T00:29:55;99298.00;;;3.68;100.00
61573;BME280;47465;43.094;12.434;2024-01-10T00:32:22;99304.13;;;3.64;100.00
61573;BME280;47465;43.094;12.434;2024-01-10T00:34:48;99225.66;;;3.19;100.00
61573;BME280;47465;43.094;12.434;2024-01-10T00:37:14;99293.34;;;3.40;100.00
61573;BME280;47465;43.094;12.434;2024-01-10T00:39:39;99182.38;;;2.81;100.00
61573;BME280;47465;43.094;12.434;2024-01-10T00:42:05;99253.56;;;3.07;100.00
61573;BME280;47465;43.094;12.434;2024-01-10T00:44:32;99336.41;;;3.49;100.00
61573;BME280;47465;43.094;12.434;2024-01-10T00:46:58;99225.28;;;2.82;100.00
61573;BME280;47465;43.094;12.434;2024-01-10T00:49:24;99370.69;;;3.62;100.00
61573;BME280;47465;43.094;12.434;2024-01-10T00:51:50;99311.69;;;3.32;100.00
61573;BME280;47465;43.094;12.434;2024-01-10T00:54:15;99274.59;;;3.07;100.00
61573;BME280;47465;43.094;12.434;2024-01-10T00:56:41;99261.44;;;3.04;100.00
61573;BME280;47465;43.094;12.434;2024-01-10T00:59:07;99309.06;;;3.32;100.00
61573;BME280;47465;43.094;12.434;2024-01-10T01:01:34;99212.16;;;2.80;100.00
61573;BME280;47465;43.094;12.434;2024-01-10T01:04:00;99371.03;;;3.93;100.00
61573;BME280;47465;43.094;12.434;2024-01-10T01:06:25;99339.19;;;3.68;100.00
61573;BME280;47465;43.094;12.434;2024-01-10T01:08:51;99373.66;;;3.96;100.00
61573;BME280;47465;43.094;12.434;2024-01-10T01:11:17;99295.97;;;3.40;100.00
61573;BME280;47465;43.094;12.434;2024-01-10T01:13:43;99348.00;;;3.72;100.00
61573;BME280;47465;43.094;12.434;2024-01-10T01:16:10;99315.34;;;3.51;100.00
61573;BME280;47465;43.094;12.434;2024-01-10T01:18:38;99225.50;;;3.02;100.00
61573;BME280;47465;43.094;12.434;2024-01-10T01:21:04;99256.31;;;3.15;100.00
61573;BME280;47465;43.094;12.434;2024-01-10T01:23:30;99270.44;;;3.26;100.00
61573;BME280;47465;43.094;12.434;2024-01-10T01:25:56;99272.22;;;3.31;100.00
61573;BME280;47465;43.094;12.434;2024-01-10T01:28:21;99178.84;;;2.79;100.00
61573;BME280;47465;43.094;12.434;2024-01-10T01:30:47;99350.69;;;3.79;100.00
61573;BME280;47465;43.094;12.434;2024-01-10T01:33:13;99270.47;;;3.31;100.00
61573;BME280;47465;43.094;12.434;2024-01-10T01:35:40;99345.41;;;3.73;100.00
61573;BME280;47465;43.094;12.434;2024-01-10T01:38:06;99298.66;;;3.44;100.00
61573;BME280;47465;43.094;12.434;2024-01-10T01:40:33;99389.47;;;3.97;100.00
61573;BME280;47465;43.094;12.434;2024-01-10T01:42:59;99389.50;;;4.03;100.00
61573;BME280;47465;43.094;12.434;2024-01-10T01:45:24;99386.03;;;4.04;100.00
61573;BME280;47465;43.094;12.434;2024-01-10T01:47:50;99385.09;;;4.01;100.00
61573;BME280;47465;43.094;12.434;2024-01-10T01:50:16;99339.22;;;3.69;100.00
61573;BME280;47465;43.094;12.434;2024-01-10T01:52:44;99375.34;;;3.87;100.00
61573;BME280;47465;43.094;12.434;2024-01-10T01:55:10;99265.16;;;3.23;100.00
61573;BME280;47465;43.094;12.434;2024-01-10T01:57:37;99265.16;;;3.23;100.00
61573;BME280;47465;43.094;12.434;2024-01-10T02:00:04;99373.59;;;3.86;100.00
61573;BME280;47465;43.094;12.434;2024-01-10T02:02:30;99352.44;;;3.76;100.00
61573;BME280;47465;43.094;12.434;2024-01-10T02:04:57;99259.97;;;3.31;100.00
61573;BME280;47465;43.094;12.434;2024-01-10T02:07:23;99263.53;;;3.38;100.00
61573;BME280;47465;43.094;12.434;2024-01-10T02:09:51;99322.69;;;3.84;100.00
61573;BME280;47465;43.094;12.434;2024-01-10T02:12:16;99287.44;;;3.64;100.00
61573;BME280;47465;43.094;12.434;2024-01-10T02:14:43;99293.66;;;3.74;100.00
61573;BME280;47465;43.094;12.434;2024-01-10T02:17:08;99345.59;;;3.96;100.00
61573;BME280;47465;43.094;12.434;2024-01-10T02:19:34;99263.72;;;3.56;100.00
61573;BME280;47465;43.094;12.434;2024-01-10T02:22:00;99268.13;;;3.62;100.00
61573;BME280;47465;43.094;12.434;2024-01-10T02:24:28;99310.38;;;3.80;100.00
61573;BME280;47465;43.094;12.434;2024-01-10T02:26:55;99387.97;;;4.28;100.00
61573;BME280;47465;43.094;12.434;2024-01-10T02:29:21;99336.03;;;4.04;100.00
61573;BME280;47465;43.094;12.434;2024-01-10T02:31:49;99329.81;;;3.96;100.00
61573;BME280;47465;43.094;12.434;2024-01-10T02:34:15;99293.72;;;3.80;100.00
61573;BME280;47465;43.094;12.434;2024-01-10T02:36:40;99280.56;;;3.78;100.00
61573;BME280;47465;43.094;12.434;2024-01-10T02:39:06;99269.13;;;3.73;100.00
61573;BME280;47465;43.094;12.434;2024-01-10T02:41:32;99386.41;;;4.49;100.00
61573;BME280;47465;43.094;12.434;2024-01-10T02:43:59;99343.13;;;4.16;100.00
61573;BME280;47465;43.094;12.434;2024-01-10T02:46:25;99292.88;;;3.82;100.00
61573;BME280;47465;43.094;12.434;2024-01-10T02:48:53;99252.25;;;3.49;100.00
61573;BME280;47465;43.094;12.434;2024-01-10T02:51:19;99316.63;;;3.93;100.00
61573;BME280;47465;43.094;12.434;2024-01-10T02:53:45;99343.09;;;4.10;100.00
61573;BME280;47465;43.094;12.434;2024-01-10T02:56:11;99300.88;;;3.96;100.00
61573;BME280;47465;43.094;12.434;2024-01-10T02:58:37;99314.09;;;4.05;100.00
61573;BME280;47465;43.094;12.434;2024-01-10T03:01:04;99301.75;;;3.98;100.00
61573;BME280;47465;43.094;12.434;2024-01-10T03:03:30;99259.47;;;3.75;100.00
61573;BME280;47465;43.094;12.434;2024-01-10T03:05:56;99294.63;;;3.83;100.00
61573;BME280;47465;43.094;12.434;2024-01-10T03:08:21;99375.66;;;4.24;100.00
61573;BME280;47465;43.094;12.434;2024-01-10T03:10:47;99365.19;;;4.30;100.00
61573;BME280;47465;43.094;12.434;2024-01-10T03:13:13;99319.31;;;3.98;100.00
61573;BME280;47465;43.094;12.434;2024-01-10T03:15:39;99292.03;;;3.86;100.00
61573;BME280;47465;43.094;12.434;2024-01-10T03:18:06;99374.00;;;4.36;100.00
61573;BME280;47465;43.094;12.434;2024-01-10T03:20:32;99294.72;;;3.96;100.00
61573;BME280;47465;43.094;12.434;2024-01-10T03:22:58;99328.28;;;4.26;100.00
61573;BME280;47465;43.094;12.434;2024-01-10T03:25:23;99278.09;;;4.00;100.00
61573;BME280;47465;43.094;12.434;2024-01-10T03:27:49;99340.59;;;4.25;100.00
61573;BME280;47465;43.094;12.434;2024-01-10T03:30:15;99337.13;;;4.34;100.00
61573;BME280;47465;43.094;12.434;2024-01-10T03:32:43;99365.19;;;4.33;100.00
61573;BME280;47465;43.094;12.434;2024-01-10T03:35:11;99293.00;;;3.98;100.00
61573;BME280;47465;43.094;12.434;2024-01-10T03:37:36;99352.06;;;4.35;100.00
61573;BME280;47465;43.094;12.434;2024-01-10T03:40:02;99327.47;;;4.33;100.00
61573;BME280;47465;43.094;12.434;2024-01-10T03:42:28;99273.66;;;3.93;100.00
61573;BME280;47465;43.094;12.434;2024-01-10T03:44:54;99265.69;;;3.85;100.00
61573;BME280;47465;43.094;12.434;2024-01-10T03:47:20;99375.00;;;4.51;100.00
61573;BME280;47465;43.094;12.434;2024-01-10T03:49:45;99337.94;;;4.27;100.00
61573;BME280;47465;43.094;12.434;2024-01-10T03:52:13;99216.25;;;3.41;100.00
61573;BME280;47465;43.094;12.434;2024-01-10T03:54:38;99257.72;;;3.71;100.00
61573;BME280;47465;43.094;12.434;2024-01-10T03:57:06;99329.09;;;4.17;100.00
61573;BME280;47465;43.094;12.434;2024-01-10T03:59:32;99260.25;;;3.60;100.00
61573;BME280;47465;43.094;12.434;2024-01-10T04:01:58;99294.66;;;3.86;100.00
61573;BME280;47465;43.094;12.434;2024-01-10T04:04:25;99380.16;;;4.38;100.00
61573;BME280;47465;43.094;12.434;2024-01-10T04:06:52;99241.72;;;3.51;100.00
61573;BME280;47465;43.094;12.434;2024-01-10T04:09:19;99318.34;;;3.88;100.00
61573;BME280;47465;43.094;12.434;2024-01-10T04:11:45;99362.47;;;4.17;100.00
61573;BME280;47465;43.094;12.434;2024-01-10T04:14:11;99309.69;;;4.01;100.00
61573;BME280;47465;43.094;12.434;2024-01-10T04:16:37;99315.00;;;4.06;100.00
61573;BME280;47465;43.094;12.434;2024-01-10T04:19:03;99341.38;;;4.18;100.00
61573;BME280;47465;43.094;12.434;2024-01-10T04:21:29;99288.44;;;3.78;100.00
61573;BME280;47465;43.094;12.434;2024-01-10T04:23:54;99359.84;;;4.21;100.00
61573;BME280;47465;43.094;12.434;2024-01-10T04:26:22;99247.06;;;3.56;100.00
61573;BME280;47465;43.094;12.434;2024-01-10T04:28:48;99184.56;;;3.25;100.00
61573;BME280;47465;43.094;12.434;2024-01-10T04:31:14;99199.56;;;3.37;100.00
61573;BME280;47465;43.094;12.434;2024-01-10T04:33:39;99385.38;;;4.31;100.00
61573;BME280;47465;43.094;12.434;2024-01-10T04:36:06;99371.38;;;4.34;100.00
61573;BME280;47465;43.094;12.434;2024-01-10T04:38:32;99326.28;;;3.94;100.00
61573;BME280;47465;43.094;12.434;2024-01-10T04:40:57;99223.22;;;3.40;100.00
61573;BME280;47465;43.094;12.434;2024-01-10T04:43:24;99292.81;;;3.76;100.00
61573;BME280;47465;43.094;12.434;2024-01-10T04:45:50;99344.81;;;4.06;100.00
61573;BME280;47465;43.094;12.434;2024-01-10T04:48:18;99332.47;;;3.98;100.00
61573;BME280;47465;43.094;12.434;2024-01-10T04:50:44;99351.00;;;4.10;100.00
61573;BME280;47465;43.094;12.434;2024-01-10T04:53:09;99240.97;;;3.61;100.00
61573;BME280;47465;43.094;12.434;2024-01-10T04:55:35;99339.59;;;4.14;100.00
61573;BME280;47465;43.094;12.434;2024-01-10T04:58:01;99361.66;;;4.31;100.00
61573;BME280;47465;43.094;12.434;2024-01-10T05:00:28;99368.69;;;4.31;100.00
61573;BME280;47465;43.094;12.434;2024-01-10T05:02:54;99271.72;;;3.70;100.00
61573;BME280;47465;43.094;12.434;2024-01-10T05:05:20;99306.19;;;4.05;100.00
61573;BME280;47465;43.094;12.434;2024-01-10T05:07:49;99372.34;;;4.50;100.00
61573;BME280;47465;43.094;12.434;2024-01-10T05:10:15;99161.66;;;3.11;100.00
61573;BME280;47465;43.094;12.434;2024-01-10T05:12:40;99264.72;;;3.72;100.00
61573;BME280;47465;43.094;12.434;2024-01-10T05:15:07;99355.47;;;4.23;100.00
61573;BME280;47465;43.094;12.434;2024-01-10T05:17:35;99344.06;;;4.21;100.00
61573;BME280;47465;43.094;12.434;2024-01-10T05:20:00;99284.09;;;3.80;100.00
61573;BME280;47465;43.094;12.434;2024-01-10T05:22:26;99310.50;;;3.96;100.00
61573;BME280;47465;43.094;12.434;2024-01-10T05:24:52;99395.22;;;4.54;100.00
61573;BME280;47465;43.094;12.434;2024-01-10T05:27:18;99354.69;;;4.37;100.00
61573;BME280;47465;43.094;12.434;2024-01-10T05:29:44;99376.56;;;4.28;100.00
61573;BME280;47465;43.094;12.434;2024-01-10T05:32:10;99304.38;;;3.98;100.00
61573;BME280;47465;43.094;12.434;2024-01-10T05:34:37;99285.00;;;3.84;100.00
61573;BME280;47465;43.094;12.434;2024-01-10T05:37:03;99389.84;;;4.42;100.00
61573;BME280;47465;43.094;12.434;2024-01-10T05:39:29;99373.06;;;4.29;100.00
61573;BME280;47465;43.094;12.434;2024-01-10T05:41:55;99365.19;;;4.33;100.00
61573;BME280;47465;43.094;12.434;2024-01-10T05:44:21;99411.94;;;4.64;100.00
61573;BME280;47465;43.094;12.434;2024-01-10T05:46:47;99332.66;;;4.22;100.00
61573;BME280;47465;43.094;12.434;2024-01-10T05:49:13;99341.47;;;4.27;100.00
61573;BME280;47465;43.094;12.434;2024-01-10T05:51:40;99379.34;;;4.48;100.00
61573;BME280;47465;43.094;12.434;2024-01-10T05:54:06;99309.84;;;4.24;100.00
61573;BME280;47465;43.094;12.434;2024-01-10T05:56:32;99272.84;;;4.03;100.00
61573;BME280;47465;43.094;12.434;2024-01-10T05:58:58;99255.25;;;3.93;100.00
61573;BME280;47465;43.094;12.434;2024-01-10T06:01:24;99374.19;;;4.60;100.00
61573;BME280;47465;43.094;12.434;2024-01-10T06:03:50;99423.47;;;4.81;100.00
61573;BME280;47465;43.094;12.434;2024-01-10T06:06:16;99312.47;;;4.24;100.00
61573;BME280;47465;43.094;12.434;2024-01-10T06:08:44;99364.53;;;4.61;100.00
61573;BME280;47465;43.094;12.434;2024-01-10T06:11:10;99409.44;;;4.85;100.00
61573;BME280;47465;43.094;12.434;2024-01-10T06:13:36;99353.03;;;4.52;100.00
61573;BME280;47465;43.094;12.434;2024-01-10T06:16:03;99386.53;;;4.70;100.00
61573;BME280;47465;43.094;12.434;2024-01-10T06:18:29;99416.47;;;4.83;100.00
61573;BME280;47465;43.094;12.434;2024-01-10T06:20:55;99420.88;;;4.83;100.00
61573;BME280;47465;43.094;12.434;2024-01-10T06:23:21;99383.91;;;4.69;100.00
61573;BME280;47465;43.094;12.434;2024-01-10T06:25:48;99349.50;;;4.43;100.00
61573;BME280;47465;43.094;12.434;2024-01-10T06:28:14;99402.38;;;4.77;100.00
61573;BME280;47465;43.094;12.434;2024-01-10T06:30:39;99310.69;;;4.20;100.00
61573;BME280;47465;43.094;12.434;2024-01-10T06:33:05;99331.88;;;4.37;100.00
61573;BME280;47465;43.094;12.434;2024-01-10T06:35:32;99391.78;;;4.67;100.00
61573;BME280;47465;43.094;12.434;2024-01-10T06:37:58;99314.16;;;4.16;100.00
61573;BME280;47465;43.094;12.434;2024-01-10T06:40:24;99382.06;;;4.62;100.00
61573;BME280;47465;43.094;12.434;2024-01-10T06:42:51;99376.78;;;4.59;100.00
61573;BME280;47465;43.094;12.434;2024-01-10T06:45:17;99289.50;;;4.02;100.00
61573;BME280;47465;43.094;12.434;2024-01-10T06:47:42;99380.25;;;4.53;100.00
61573;BME280;47465;43.094;12.434;2024-01-10T06:50:09;99397.00;;;4.61;100.00
61573;BME280;47465;43.094;12.434;2024-01-10T06:52:35;99372.34;;;4.50;100.00
61573;BME280;47465;43.094;12.434;2024-01-10T06:55:00;99449.06;;;5.01;100.00
61573;BME280;47465;43.094;12.434;2024-01-10T06:57:26;99381.31;;;4.81;100.00
61573;BME280;47465;43.094;12.434;2024-01-10T06:59:53;99270.22;;;4.04;100.00
61573;BME280;47465;43.094;12.434;2024-01-10T07:02:19;99423.59;;;4.95;100.00
61573;BME280;47465;43.094;12.434;2024-01-10T07:04:45;99267.53;;;3.95;100.00
61573;BME280;47465;43.094;12.434;2024-01-10T07:07:13;99354.78;;;4.50;100.00
61573;BME280;47465;43.094;12.434;2024-01-10T07:09:40;99399.75;;;4.75;100.00
61573;BME280;47465;43.094;12.434;2024-01-10T07:12:06;99375.03;;;4.59;100.00
61573;BME280;47465;43.094;12.434;2024-01-10T07:14:32;99443.81;;;4.98;100.00
61573;BME280;47465;43.094;12.434;2024-01-10T07:16:59;99429.69;;;4.86;100.00
61573;BME280;47465;43.094;12.434;2024-01-10T07:19:26;99356.53;;;4.48;100.00
61573;BME280;47465;43.094;12.434;2024-01-10T07:21:51;99389.16;;;4.70;100.00
61573;BME280;47465;43.094;12.434;2024-01-10T07:24:19;99425.19;;;4.73;100.00
61573;BME280;47465;43.094;12.434;2024-01-10T07:26:45;99322.13;;;4.21;100.00
61573;BME280;47465;43.094;12.434;2024-01-10T07:29:11;99460.59;;;5.13;100.00
61573;BME280;47465;43.094;12.434;2024-01-10T07:31:37;99329.22;;;4.36;100.00
61573;BME280;47465;43.094;12.434;2024-01-10T07:34:04;99456.09;;;4.97;100.00
61573;BME280;47465;43.094;12.434;2024-01-10T07:36:31;99420.03;;;4.90;100.00
61573;BME280;47465;43.094;12.434;2024-01-10T07:38:59;99492.34;;;5.32;100.00
61573;BME280;47465;43.094;12.434;2024-01-10T07:41:25;99363.50;;;4.42;100.00
61573;BME280;47465;43.094;12.434;2024-01-10T07:43:51;99486.97;;;5.18;100.00
61573;BME280;47465;43.094;12.434;2024-01-10T07:46:16;99450.91;;;5.08;100.00
61573;BME280;47465;43.094;12.434;2024-01-10T07:48:43;99350.47;;;4.59;100.00
61573;BME280;47465;43.094;12.434;2024-01-10T07:51:10;99429.78;;;5.06;100.00
61573;BME280;47465;43.094;12.434;2024-01-10T07:53:36;99406.84;;;4.91;100.00
61573;BME280;47465;43.094;12.434;2024-01-10T07:56:02;99433.34;;;5.13;100.00
61573;BME280;47465;43.094;12.434;2024-01-10T07:58:27;99456.25;;;5.19;100.00
61573;BME280;47465;43.094;12.434;2024-01-10T08:00:53;99338.22;;;4.67;100.00
61573;BME280;47465;43.094;12.434;2024-01-10T08:03:19;99404.31;;;5.04;100.00
61573;BME280;47465;43.094;12.434;2024-01-10T08:05:45;99476.63;;;5.56;100.00
61573;BME280;47465;43.094;12.434;2024-01-10T08:08:13;99294.16;;;4.44;100.00
61573;BME280;47465;43.094;12.434;2024-01-10T08:10:39;99391.00;;;4.85;100.00
61573;BME280;47465;43.094;12.434;2024-01-10T08:13:05;99428.97;;;5.20;100.00
61573;BME280;47465;43.094;12.434;2024-01-10T08:15:31;99452.78;;;5.35;100.00
61573;BME280;47465;43.094;12.434;2024-01-10T08:17:59;99369.09;;;4.91;100.00
61573;BME280;47465;43.094;12.434;2024-01-10T08:20:26;99498.69;;;5.71;100.00
61573;BME280;47465;43.094;12.434;2024-01-10T08:22:52;99428.22;;;5.41;100.00
61573;BME280;47465;43.094;12.434;2024-01-10T08:25:20;99407.94;;;5.29;100.00
61573;BME280;47465;43.094;12.434;2024-01-10T08:27:46;99393.00;;;5.35;100.00
61573;BME280;47465;43.094;12.434;2024-01-10T08:30:12;99413.25;;;5.37;100.00
61573;BME280;47465;43.094;12.434;2024-01-10T08:32:38;99378.88;;;5.15;100.00
61573;BME280;47465;43.094;12.434;2024-01-10T08:35:04;99471.44;;;5.75;100.00
61573;BME280;47465;43.094;12.434;2024-01-10T08:37:30;99452.00;;;5.51;100.00
61573;BME280;47465;43.094;12.434;2024-01-10T08:39:56;99507.53;;;5.87;100.00
61573;BME280;47465;43.094;12.434;2024-01-10T08:42:23;99435.25;;;5.46;100.00
61573;BME280;47465;43.094;12.434;2024-01-10T08:44:49;99428.22;;;5.41;100.00
61573;BME280;47465;43.094;12.434;2024-01-10T08:47:15;99421.13;;;5.30;100.00
61573;BME280;47465;43.094;12.434;2024-01-10T08:49:41;99370.94;;;5.10;100.00
61573;BME280;47465;43.094;12.434;2024-01-10T08:52:07;99340.16;;;5.03;100.00
61573;BME280;47465;43.094;12.434;2024-01-10T08:54:35;99483.84;;;6.01;100.00
61573;BME280;47465;43.094;12.434;2024-01-10T08:57:01;99408.00;;;5.47;100.00
61573;BME280;47465;43.094;12.434;2024-01-10T08:59:29;99464.44;;;5.82;100.00
61573;BME280;47465;43.094;12.434;2024-01-10T09:01:55;99491.69;;;5.81;100.00
61573;BME280;47465;43.094;12.434;2024-01-10T09:04:21;99365.66;;;5.13;100.00
61573;BME280;47465;43.094;12.434;2024-01-10T09:06:47;99417.75;;;5.62;100.00
61573;BME280;47465;43.094;12.434;2024-01-10T09:09:13;99498.88;;;6.19;100.00
61573;BME280;47465;43.094;12.434;2024-01-10T09:11:39;99497.09;;;6.17;100.00
61573;BME280;47465;43.094;12.434;2024-01-10T09:14:05;99511.22;;;6.18;100.00
61573;BME280;47465;43.094;12.434;2024-01-10T09:16:32;99437.13;;;5.75;100.00
61573;BME280;47465;43.094;12.434;2024-01-10T09:18:58;99510.34;;;6.34;100.00
61573;BME280;47465;43.094;12.434;2024-01-10T09:21:25;99496.25;;;6.28;100.00
61573;BME280;47465;43.094;12.434;2024-01-10T09:23:52;99390.44;;;5.45;100.00
61573;BME280;47465;43.094;12.434;2024-01-10T09:26:19;99511.22;;;6.21;100.00
61573;BME280;47465;43.094;12.434;2024-01-10T09:28:44;99508.56;;;6.24;100.00
61573;BME280;47465;43.094;12.434;2024-01-10T09:31:10;99544.69;;;6.37;100.00
61573;BME280;47465;43.094;12.434;2024-01-10T09:33:37;99394.84;;;5.55;100.00
61573;BME280;47465;43.094;12.434;2024-01-10T09:36:04;99482.91;;;5.94;100.00
61573;BME280;47465;43.094;12.434;2024-01-10T09:38:34;99502.38;;;6.08;100.00
61573;BME280;47465;43.094;12.434;2024-01-10T09:41:02;99423.91;;;5.72;100.00
61573;BME280;47465;43.094;12.434;2024-01-10T09:43:29;99512.06;;;6.22;100.00
61573;BME280;47465;43.094;12.434;2024-01-10T09:45:57;99490.97;;;6.32;100.00
61573;BME280;47465;43.094;12.434;2024-01-10T09:48:24;99463.69;;;6.36;100.00
61573;BME280;47465;43.094;12.434;2024-01-10T09:50:52;99535.97;;;6.82;100.00
61573;BME280;47465;43.094;12.434;2024-01-10T09:53:22;99398.53;;;6.32;100.00
61573;BME280;47465;43.094;12.434;2024-01-10T09:55:49;99526.25;;;7.10;100.00
61573;BME280;47465;43.094;12.434;2024-01-10T09:58:16;99494.50;;;7.14;100.00
61573;BME280;47465;43.094;12.434;2024-01-10T10:00:42;99480.44;;;7.03;98.43
61573;BME280;47465;43.094;12.434;2024-01-10T10:03:09;99449.56;;;6.97;96.25
61573;BME280;47465;43.094;12.434;2024-01-10T10:05:38;99378.28;;;6.57;96.14
61573;BME280;47465;43.094;12.434;2024-01-10T10:08:09;99438.16;;;6.75;98.31
61573;BME280;47465;43.094;12.434;2024-01-10T10:10:36;99493.66;;;6.88;98.24
61573;BME280;47465;43.094;12.434;2024-01-10T10:13:02;99388.84;;;6.31;98.03
61573;BME280;47465;43.094;12.434;2024-01-10T10:15:28;99520.97;;;7.08;100.00
61573;BME280;47465;43.094;12.434;2024-01-10T10:17:54;99358.03;;;5.96;100.00
61573;BME280;47465;43.094;12.434;2024-01-10T10:20:24;99459.28;;;6.80;98.93
61573;BME280;47465;43.094;12.434;2024-01-10T10:23:00;99358.03;;;6.33;98.69
61573;BME280;47465;43.094;12.434;2024-01-10T10:25:30;99399.41;;;6.68;98.18
61573;BME280;47465;43.094;12.434;2024-01-10T10:28:00;99510.31;;;7.44;98.87
61573;BME280;47465;43.094;12.434;2024-01-10T10:30:26;99475.09;;;7.25;99.76
61573;BME280;47465;43.094;12.434;2024-01-10T10:32:52;99475.03;;;7.43;97.78
61573;BME280;47465;43.094;12.434;2024-01-10T10:35:19;99394.88;;;7.09;96.00
61573;BME280;47465;43.094;12.434;2024-01-10T10:37:47;99423.13;;;6.85;99.25
61573;BME280;47465;43.094;12.434;2024-01-10T10:40:13;99467.22;;;6.98;100.00
61573;BME280;47465;43.094;12.434;2024-01-10T10:42:44;99490.09;;;7.29;100.00
61573;BME280;47465;43.094;12.434;2024-01-10T10:45:14;99481.16;;;7.56;99.16
61573;BME280;47465;43.094;12.434;2024-01-10T10:47:43;99487.28;;;7.75;98.42
61573;BME280;47465;43.094;12.434;2024-01-10T10:50:12;99404.56;;;7.20;96.89
61573;BME280;47465;43.094;12.434;2024-01-10T10:52:42;99405.44;;;7.13;96.62
61573;BME280;47465;43.094;12.434;2024-01-10T10:55:11;99393.19;;;6.98;98.05
61573;BME280;47465;43.094;12.434;2024-01-10T10:57:41;99467.88;;;7.65;94.29
61573;BME280;47465;43.094;12.434;2024-01-10T11:00:08;99461.78;;;7.51;96.75
61573;BME280;47465;43.094;12.434;2024-01-10T11:02:37;99467.03;;;7.65;96.19
61573;BME280;47465;43.094;12.434;2024-01-10T11:05:03;99481.88;;;7.96;96.43
61573;BME280;47465;43.094;12.434;2024-01-10T11:07:31;99476.50;;;8.10;91.31
61573;BME280;47465;43.094;12.434;2024-01-10T11:09:57;99462.34;;;8.13;92.83
61573;BME280;47465;43.094;12.434;2024-01-10T11:12:49;99464.28;;;7.88;94.21
61573;BME280;47465;43.094;12.434;2024-01-10T11:15:35;99470.50;;;7.70;95.82
61573;BME280;47465;43.094;12.434;2024-01-10T11:18:26;99464.31;;;7.83;93.57
61573;BME280;47465;43.094;12.434;2024-01-10T11:21:20;99429.00;;;7.81;94.11
61573;BME280;47465;43.094;12.434;2024-01-10T11:23:53;99467.75;;;7.97;94.68
61573;BME280;47465;43.094;12.434;2024-01-10T11:26:20;99411.44;;;7.68;96.32
61573;BME280;47465;43.094;12.434;2024-01-10T11:28:46;99441.34;;;7.82;95.01
61573;BME280;47465;43.094;12.434;2024-01-10T11:31:14;99426.31;;;7.92;93.56
61573;BME280;47465;43.094;12.434;2024-01-10T11:33:42;99372.59;;;7.67;93.01
61573;BME280;47465;43.094;12.434;2024-01-10T11:36:12;99349.81;;;7.39;94.93
61573;BME280;47465;43.094;12.434;2024-01-10T11:38:41;99427.28;;;7.72;95.00
61573;BME280;47465;43.094;12.434;2024-01-10T11:41:07;99346.34;;;7.27;94.90
61573;BME280;47465;43.094;12.434;2024-01-10T11:43:35;99414.03;;;7.77;95.53
61573;BME280;47465;43.094;12.434;2024-01-10T11:46:02;99380.59;;;7.59;96.46
61573;BME280;47465;43.094;12.434;2024-01-10T11:48:32;99463.38;;;7.92;96.31
61573;BME280;47465;43.094;12.434;2024-01-10T11:50:58;99415.78;;;7.72;96.99
61573;BME280;47465;43.094;12.434;2024-01-10T11:53:39;99313.88;;;6.91;96.82
61573;BME280;47465;43.094;12.434;2024-01-10T11:56:09;99366.56;;;7.37;96.27
61573;BME280;47465;43.094;12.434;2024-01-10T11:58:52;99352.56;;;7.09;95.04
61573;BME280;47465;43.094;12.434;2024-01-10T12:01:18;99364.00;;;7.18;96.55
61573;BME280;47465;43.094;12.434;2024-01-10T12:03:46;99393.81;;;7.57;94.43
61573;BME280;47465;43.094;12.434;2024-01-10T12:06:13;99397.34;;;7.59;93.61
61573;BME280;47465;43.094;12.434;2024-01-10T12:08:40;99380.66;;;7.47;97.10
61573;BME280;47465;43.094;12.434;2024-01-10T12:11:05;99407.97;;;7.49;97.23
61573;BME280;47465;43.094;12.434;2024-01-10T12:13:31;99346.28;;;7.33;96.38
61573;BME280;47465;43.094;12.434;2024-01-10T12:15:57;99432.38;;;8.06;94.67
61573;BME280;47465;43.094;12.434;2024-01-10T12:18:23;99440.31;;;8.09;93.31
61573;BME280;47465;43.094;12.434;2024-01-10T12:20:51;99333.88;;;7.46;94.23
61573;BME280;47465;43.094;12.434;2024-01-10T12:23:16;99366.44;;;7.66;95.04
61573;BME280;47465;43.094;12.434;2024-01-10T12:25:42;99412.94;;;8.13;92.94
61573;BME280;47465;43.094;12.434;2024-01-10T12:28:08;99423.34;;;8.38;91.87
61573;BME280;47465;43.094;12.434;2024-01-10T12:30:34;99400.47;;;8.23;90.92
61573;BME280;47465;43.094;12.434;2024-01-10T12:33:00;99292.31;;;7.63;90.49
61573;BME280;47465;43.094;12.434;2024-01-10T12:35:26;99403.94;;;8.31;92.52
61573;BME280;47465;43.094;12.434;2024-01-10T12:37:57;99404.16;;;8.05;92.93
61573;BME280;47465;43.094;12.434;2024-01-10T12:40:23;99382.28;;;7.72;94.23
61573;BME280;47465;43.094;12.434;2024-01-10T12:42:49;99397.22;;;7.78;95.91
61573;BME280;47465;43.094;12.434;2024-01-10T12:45:21;99413.84;;;8.09;94.12
61573;BME280;47465;43.094;12.434;2024-01-10T12:47:47;99420.88;;;8.10;95.58
61573;BME280;47465;43.094;12.434;2024-01-10T12:50:13;99404.09;;;8.07;96.44